Time;durP1;ratioP1;P1;durP2;ratioP2;P2;SDS_P1;SDS_P2;PMS_P1;PMS_P2;Temp;Humidity;BMP_temperature;BMP_pressure;BME280_temperature;BME280_humidity;BME280_pressure;Samples;Min_cycle;Max_cycle;Signal;HPM_P1;HPM_P2
2023/10/09 01:22:24;;;;;;;35.95;27.92;;;;;;;13.53;100.00;101877.50;5043039;22;20555;-65
2023/10/09 01:24:51;;;;;;;34.25;27.90;;;;;;;13.55;100.00;101864.94;5070901;28;20132;-66
2023/10/09 01:27:16;;;;;;;35.50;27.73;;;;;;;13.64;100.00;101884.56;5071263;28;20490;-66
2023/10/09 01:29:43;;;;;;;34.65;26.65;;;;;;;13.70;100.00;101883.34;5044144;28;20064;-66
2023/10/09 01:32:16;;;;;;;33.58;26.48;;;;;;;13.73;100.00;101888.31;5050465;28;20048;-66
2023/10/09 01:34:42;;;;;;;32.70;27.15;;;;;;;13.79;100.00;101894.59;5050362;28;20456;-66
2023/10/09 01:37:18;;;;;;;37.15;26.63;;;;;;;13.80;100.00;101890.69;5050117;28;20025;-66
2023/10/09 01:39:48;;;;;;;32.47;26.80;;;;;;;13.85;100.00;101887.84;5030843;28;20030;-66
2023/10/09 01:42:23;;;;;;;32.78;26.75;;;;;;;13.87;100.00;101882.81;5030772;28;20037;-66
2023/10/09 01:44:49;;;;;;;33.92;25.98;;;;;;;13.90;100.00;101881.38;5030951;28;20368;-66
2023/10/09 01:47:14;;;;;;;32.92;26.25;;;;;;;13.92;100.00;101879.13;5031068;28;20036;-67
2023/10/09 01:49:43;;;;;;;32.20;25.83;;;;;;;13.95;100.00;101878.47;5031014;28;20087;-67
2023/10/09 01:52:09;;;;;;;33.60;25.67;;;;;;;13.97;100.00;101878.19;5031268;28;20091;-67
2023/10/09 01:54:40;;;;;;;30.48;25.48;;;;;;;13.98;100.00;101879.84;5036142;28;20171;-67
2023/10/09 01:57:12;;;;;;;33.63;27.25;;;;;;;14.00;100.00;101877.56;5071193;28;20028;-67
2023/10/09 01:59:59;;;;;;;33.17;26.05;;;;;;;14.00;100.00;101875.63;5071333;28;20040;-67
2023/10/09 02:02:33;;;;;;;33.33;26.70;;;;;;;14.02;100.00;101864.19;5071736;28;20115;-67
2023/10/09 02:07:40;;;;;;;34.60;26.27;;;;;;;14.07;100.00;101866.06;5070874;28;20059;-67
2023/10/09 02:10:31;;;;;;;32.92;25.20;;;;;;;14.05;100.00;101869.16;5070816;28;20398;-66
2023/10/09 02:12:58;;;;;;;32.53;25.60;;;;;;;14.06;100.00;101886.66;5071066;28;20104;-66
2023/10/09 02:21:12;;;;;;;32.55;25.83;;;;;;;14.08;100.00;101864.94;5070962;28;20067;-66
2023/10/09 02:23:40;;;;;;;30.98;25.67;;;;;;;14.09;100.00;101859.03;5071352;28;20451;-67
2023/10/09 02:26:07;;;;;;;32.13;25.40;;;;;;;14.09;100.00;101852.66;5071005;28;20067;-67
2023/10/09 02:28:32;;;;;;;32.40;26.08;;;;;;;14.11;100.00;101861.53;5070531;28;20340;-66
2023/10/09 02:31:00;;;;;;;32.42;24.38;;;;;;;14.12;100.00;101863.19;5070393;28;20093;-66
2023/10/09 02:33:30;;;;;;;34.28;26.50;;;;;;;14.11;100.00;101844.84;5070127;28;20058;-65
2023/10/09 02:36:04;;;;;;;34.17;25.90;;;;;;;14.12;100.00;101838.97;5070186;28;20493;-65
2023/10/09 02:38:35;;;;;;;30.40;25.27;;;;;;;14.11;100.00;101845.66;5070239;28;20436;-66
2023/10/09 02:43:44;;;;;;;32.13;25.83;;;;;;;14.11;100.00;101836.50;5070279;28;20090;-66
2023/10/09 02:46:19;;;;;;;31.52;25.73;;;;;;;14.12;100.00;101835.38;5070298;28;20050;-66
2023/10/09 02:48:50;;;;;;;32.97;26.33;;;;;;;14.10;100.00;101827.31;5069831;28;20055;-66
2023/10/09 02:52:06;;;;;;;31.05;25.65;;;;;;;14.11;100.00;101820.63;5069393;28;20094;-65
2023/10/09 02:54:18;;;;;;;31.65;25.45;;;;;;;14.11;100.00;101826.19;5052193;28;20056;-65
2023/10/09 02:57:07;;;;;;;33.53;26.60;;;;;;;14.10;100.00;101838.44;5069726;28;20397;-66
2023/10/09 02:59:38;;;;;;;30.67;25.52;;;;;;;14.11;100.00;101834.53;5069891;28;20036;-66
2023/10/09 03:02:04;;;;;;;32.67;26.27;;;;;;;14.11;100.00;101826.19;5051618;28;20056;-65
2023/10/09 03:04:29;;;;;;;34.33;27.30;;;;;;;14.13;100.00;101823.09;5070056;28;20388;-65
2023/10/09 03:06:57;;;;;;;30.58;25.77;;;;;;;14.11;100.00;101831.75;5051966;28;20165;-66
2023/10/09 03:09:28;;;;;;;34.08;26.45;;;;;;;14.14;100.00;101828.38;5070384;28;20161;-66
2023/10/09 03:12:09;;;;;;;32.95;26.88;;;;;;;14.14;100.00;101827.53;5070166;28;20038;-66
2023/10/09 03:14:38;;;;;;;31.77;25.50;;;;;;;14.15;100.00;101832.81;5069671;28;20021;-66
2023/10/09 03:17:03;;;;;;;31.23;26.20;;;;;;;14.16;100.00;101817.75;5069422;28;20028;-67
2023/10/09 03:19:31;;;;;;;31.08;26.23;;;;;;;14.17;100.00;101816.59;5069418;28;20387;-65
2023/10/09 03:22:00;;;;;;;32.60;26.23;;;;;;;14.18;100.00;101809.09;5069369;28;20044;-66
2023/10/09 03:24:27;;;;;;;30.63;24.95;;;;;;;14.19;100.00;101806.00;5069269;28;20040;-66
2023/10/09 03:26:55;;;;;;;33.17;26.27;;;;;;;14.21;100.00;101814.06;5068648;28;20111;-66
2023/10/09 03:29:21;;;;;;;32.42;26.52;;;;;;;14.19;100.00;101807.97;5069574;28;20048;-66
2023/10/09 03:31:50;;;;;;;33.30;26.85;;;;;;;14.18;100.00;101818.25;5069393;28;20120;-67
2023/10/09 03:34:16;;;;;;;33.97;26.50;;;;;;;14.18;100.00;101812.69;5069589;28;20103;-66
2023/10/09 03:36:43;;;;;;;29.75;24.80;;;;;;;14.15;100.00;101790.22;5069551;28;20112;-66
2023/10/09 03:41:54;;;;;;;35.35;26.02;;;;;;;14.20;100.00;101795.69;5068979;28;20384;-66
2023/10/09 03:44:19;;;;;;;33.30;25.90;;;;;;;14.20;100.00;101790.94;5069824;28;20116;-67
2023/10/09 03:46:46;;;;;;;30.38;25.33;;;;;;;14.20;100.00;101788.16;5069803;28;20104;-66
2023/10/09 03:49:13;;;;;;;33.00;25.88;;;;;;;14.17;100.00;101791.56;5069493;28;20032;-66
2023/10/09 03:51:39;;;;;;;31.90;25.95;;;;;;;14.17;100.00;101804.66;5069358;28;20025;-66
2023/10/09 03:54:07;;;;;;;32.45;25.83;;;;;;;14.18;100.00;101803.53;5069282;28;20020;-66
2023/10/09 03:56:35;;;;;;;32.58;25.35;;;;;;;14.18;100.00;101807.13;5068760;28;20029;-66
2023/10/09 03:59:03;;;;;;;33.15;25.63;;;;;;;14.18;100.00;101795.19;5069253;28;20525;-66
2023/10/09 04:01:29;;;;;;;32.53;26.00;;;;;;;14.21;100.00;101786.22;5071392;28;20041;-66
2023/10/09 04:04:01;;;;;;;32.15;25.42;;;;;;;14.20;100.00;101792.91;5073284;28;20021;-66
2023/10/09 04:06:34;;;;;;;34.72;26.98;;;;;;;14.23;100.00;101794.25;5073488;28;20067;-66
2023/10/09 04:11:57;;;;;;;30.58;25.35;;;;;;;14.23;100.00;101786.72;5072951;28;20090;-66
2023/10/09 04:15:11;;;;;;;32.88;26.30;;;;;;;14.25;100.00;101781.69;5054361;28;20154;-66
2023/10/09 04:22:49;;;;;;;33.60;26.83;;;;;;;14.22;100.00;101773.13;5052860;28;20199;-67
2023/10/09 04:25:29;;;;;;;32.63;26.60;;;;;;;14.21;100.00;101772.31;5052491;28;20028;-68
2023/10/09 04:30:43;;;;;;;31.20;26.05;;;;;;;14.23;100.00;101772.81;5052925;28;20542;-67
2023/10/09 04:36:26;;;;;;;31.73;26.02;;;;;;;14.25;100.00;101803.13;5052580;28;20039;-67
2023/10/09 04:39:14;;;;;;;35.38;26.55;;;;;;;14.23;100.00;101808.16;5052487;28;20029;-67
2023/10/09 04:44:24;;;;;;;35.28;26.88;;;;;;;14.28;100.00;101819.19;5052877;28;20429;-67
2023/10/09 04:57:45;;;;;;;33.17;26.05;;;;;;;14.29;100.00;101831.97;5052304;28;20036;-66
2023/10/09 05:02:54;;;;;;;31.60;26.67;;;;;;;14.28;100.00;101821.97;5052636;28;20071;-65
2023/10/09 05:08:28;;;;;;;32.78;26.85;;;;;;;14.29;100.00;101823.63;5052652;28;20039;-66
2023/10/09 05:16:18;;;;;;;32.38;26.42;;;;;;;14.30;100.00;101808.59;5051984;28;20148;-66
2023/10/09 05:19:05;;;;;;;31.67;26.85;;;;;;;14.29;100.00;101793.00;5052037;28;20028;-67
2023/10/09 05:29:19;;;;;;;30.88;26.42;;;;;;;14.24;100.00;101816.19;5071633;28;20154;-67
2023/10/09 05:32:03;;;;;;;35.00;27.35;;;;;;;14.23;100.00;101828.47;5071677;28;20432;-67
2023/10/09 05:34:36;;;;;;;33.67;27.23;;;;;;;14.24;100.00;101832.91;5071430;28;20107;-66
2023/10/09 05:37:22;;;;;;;32.80;26.23;;;;;;;14.21;100.00;101830.75;5071528;28;20123;-67
2023/10/09 05:47:53;;;;;;;33.03;27.52;;;;;;;14.24;100.00;101841.25;5071376;28;20083;-65
2023/10/09 06:03:54;;;;;;;33.60;27.67;;;;;;;14.25;100.00;101873.53;5071355;28;19915;-64
2023/10/09 06:06:32;;;;;;;34.10;28.83;;;;;;;14.29;100.00;101874.56;5071010;28;20120;-65
2023/10/09 06:11:49;;;;;;;32.40;26.65;;;;;;;14.32;100.00;101865.59;5070859;28;20510;-65
2023/10/09 06:17:01;;;;;;;33.38;27.48;;;;;;;14.35;100.00;101847.47;5071323;28;20127;-67
2023/10/09 06:19:28;;;;;;;34.83;27.58;;;;;;;14.33;100.00;101861.69;5071187;28;20028;-64
2023/10/09 06:24:42;;;;;;;34.17;27.70;;;;;;;14.37;100.00;101859.09;5070617;28;20039;-65
2023/10/09 06:27:12;;;;;;;35.17;27.58;;;;;;;14.37;100.00;101847.16;5070283;28;20029;-66
2023/10/09 06:35:15;;;;;;;35.28;27.95;;;;;;;14.38;100.00;101865.50;5070582;28;20471;-65
2023/10/09 06:43:17;;;;;;;35.00;28.00;;;;;;;14.44;100.00;101865.09;5070325;28;20052;-65
2023/10/09 06:45:54;;;;;;;34.83;26.67;;;;;;;14.45;100.00;101849.22;5069868;28;20028;-64
2023/10/09 06:51:15;;;;;;;34.63;26.65;;;;;;;14.46;100.00;101846.13;5069900;28;20097;-65
2023/10/09 06:59:03;;;;;;;33.85;26.05;;;;;;;14.50;100.00;101829.63;5069837;28;20505;-64
2023/10/09 07:04:19;;;;;;;34.97;26.92;;;;;;;14.54;100.00;101849.34;5046763;28;20048;-64
2023/10/09 07:06:51;;;;;;;36.25;28.17;;;;;;;14.57;100.00;101843.97;5049934;28;20091;-64
2023/10/09 07:09:19;;;;;;;35.40;27.58;;;;;;;14.60;100.00;101848.09;5049808;28;20040;-65
2023/10/09 07:17:01;;;;;;;33.83;26.58;;;;;;;14.69;100.00;101786.97;5030148;28;20085;-65
2023/10/09 07:22:03;;;;;;;34.30;27.80;;;;;;;14.74;100.00;101832.22;5029959;28;20100;-66
2023/10/09 07:24:43;;;;;;;36.70;28.38;;;;;;;14.75;100.00;101833.06;5028928;28;20120;-66
2023/10/09 07:27:14;;;;;;;34.55;27.95;;;;;;;14.85;100.00;101871.00;5029781;28;20195;-65
2023/10/09 07:29:49;;;;;;;35.65;27.75;;;;;;;14.88;100.00;101864.81;5028968;28;20025;-66
2023/10/09 07:32:21;;;;;;;35.55;26.73;;;;;;;14.93;100.00;101871.13;5029011;28;20100;-66
2023/10/09 07:34:53;;;;;;;35.85;27.58;;;;;;;14.95;100.00;101874.44;5029072;28;20030;-66
2023/10/09 07:37:30;;;;;;;33.63;26.70;;;;;;;14.97;100.00;101883.28;5031378;28;20065;-64
2023/10/09 07:40:06;;;;;;;35.78;26.48;;;;;;;14.98;100.00;101890.50;5033545;28;20028;-65
2023/10/09 07:51:08;;;;;;;34.35;26.80;;;;;;;15.02;100.00;101909.41;5057560;28;20513;-66
2023/10/09 07:53:29;;;;;;;35.20;26.85;;;;;;;15.02;100.00;101892.69;5055958;28;20052;-67
2023/10/09 07:55:55;;;;;;;35.17;27.35;;;;;;;15.04;100.00;101877.28;5052239;28;20036;-68
2023/10/09 07:58:27;;;;;;;35.10;26.85;;;;;;;15.04;100.00;101879.25;5061229;28;20035;-68
2023/10/09 08:01:15;;;;;;;35.92;27.70;;;;;;;15.04;100.00;101848.63;5072858;28;20375;-66
2023/10/09 08:03:46;;;;;;;35.40;28.33;;;;;;;15.07;100.00;101847.97;5072949;28;20067;-67
2023/10/09 08:09:17;;;;;;;34.53;26.80;;;;;;;15.13;100.00;101882.97;4990420;28;20081;-65
2023/10/09 08:14:48;;;;;;;34.20;26.80;;;;;;;15.23;100.00;101888.31;4989817;28;20059;-66
2023/10/09 08:17:11;;;;;;;35.67;26.25;;;;;;;15.33;100.00;101878.09;5027340;28;20136;-68
2023/10/09 08:19:56;;;;;;;36.38;27.23;;;;;;;15.37;100.00;101857.63;5032482;28;20033;-66
2023/10/09 08:24:57;;;;;;;33.97;27.40;;;;;;;15.46;100.00;101851.28;5032360;28;20485;-65
2023/10/09 08:33:03;;;;;;;34.05;27.08;;;;;;;15.60;100.00;101838.94;5034288;28;20033;-66
2023/10/09 08:35:47;;;;;;;35.17;27.55;;;;;;;15.68;100.00;101825.38;5061609;28;20024;-67
2023/10/09 08:38:13;;;;;;;34.20;27.17;;;;;;;15.74;100.00;101833.31;5070748;28;20094;-66
2023/10/09 08:40:40;;;;;;;35.38;26.63;;;;;;;15.79;100.00;101831.50;5072105;28;20032;-67
2023/10/09 08:43:08;;;;;;;33.67;27.20;;;;;;;15.90;100.00;101838.50;5065194;28;20218;-67
2023/10/09 08:45:39;;;;;;;35.13;26.85;;;;;;;15.92;100.00;101832.63;5051748;28;20098;-66
2023/10/09 08:48:06;;;;;;;34.67;27.40;;;;;;;16.00;100.00;101849.41;5053230;28;20037;-68
2023/10/09 08:50:34;;;;;;;33.03;27.02;;;;;;;16.07;100.00;101843.38;5051692;28;20131;-66
2023/10/09 08:53:00;;;;;;;34.50;27.33;;;;;;;16.12;100.00;101851.63;5054734;28;20467;-67
2023/10/09 08:55:26;;;;;;;36.35;27.40;;;;;;;16.15;100.00;101848.19;5060512;28;20067;-67
2023/10/09 08:57:52;;;;;;;35.03;26.85;;;;;;;16.29;100.00;101872.41;5051708;28;20021;-68
2023/10/09 09:00:24;;;;;;;35.90;27.13;;;;;;;16.39;100.00;101891.66;5055537;28;20471;-67
2023/10/09 09:03:00;;;;;;;33.63;25.80;;;;;;;16.46;100.00;101906.03;5052244;28;20048;-67
2023/10/09 09:05:28;;;;;;;34.03;25.90;;;;;;;16.51;100.00;101910.66;5070358;28;20108;-68
2023/10/09 09:07:56;;;;;;;33.35;26.73;;;;;;;16.61;100.00;101913.16;5051811;28;20036;-66
2023/10/09 09:10:34;;;;;;;34.53;27.80;;;;;;;16.77;100.00;101899.56;5051527;28;20033;-66
2023/10/09 09:13:03;;;;;;;32.50;25.33;;;;;;;16.87;100.00;101908.78;5051559;28;20033;-69
2023/10/09 09:15:30;;;;;;;32.78;26.55;;;;;;;16.97;100.00;101909.38;5047925;28;20087;-66
2023/10/09 09:18:09;;;;;;;34.17;26.73;;;;;;;17.07;100.00;101910.22;5039105;28;20044;-66
2023/10/09 09:20:36;;;;;;;32.60;25.63;;;;;;;17.15;100.00;101906.63;5031753;28;20045;-66
2023/10/09 09:23:05;;;;;;;35.30;25.67;;;;;;;17.20;100.00;101906.47;5048323;28;20090;-66
2023/10/09 09:25:59;;;;;;;31.95;25.45;;;;;;;17.28;100.00;101902.03;5070957;28;20773;-66
2023/10/09 09:28:32;;;;;;;33.42;25.58;;;;;;;17.24;100.00;101909.44;5070978;28;20108;-66
2023/10/09 09:31:13;;;;;;;33.47;26.23;;;;;;;17.29;100.00;101915.69;5071488;28;20039;-65
2023/10/09 09:33:43;;;;;;;33.30;26.13;;;;;;;17.35;100.00;101921.94;5071406;28;20047;-66
2023/10/09 09:36:11;;;;;;;32.67;26.15;;;;;;;17.42;100.00;101919.50;5066559;28;20148;-65
2023/10/09 09:38:47;;;;;;;35.35;27.73;;;;;;;17.45;100.00;101926.41;5031090;28;20075;-66
2023/10/09 09:41:23;;;;;;;35.25;26.17;;;;;;;17.48;100.00;101936.94;5049659;28;20032;-66
2023/10/09 09:43:52;;;;;;;33.17;26.27;;;;;;;17.52;100.00;101934.34;5049092;28;20041;-66
2023/10/09 09:46:19;;;;;;;35.67;25.95;;;;;;;17.61;100.00;101935.97;5042486;28;20115;-70
2023/10/09 09:48:47;;;;;;;36.17;27.83;;;;;;;17.65;100.00;101930.53;5058665;28;20865;-67
2023/10/09 09:51:17;;;;;;;34.33;26.30;;;;;;;17.69;100.00;101928.75;5051908;28;20033;-66
2023/10/09 09:53:48;;;;;;;33.65;26.08;;;;;;;17.70;100.00;101932.34;5056873;28;20208;-67
2023/10/09 09:56:18;;;;;;;35.90;27.42;;;;;;;17.75;100.00;101921.00;5059668;28;20123;-67
2023/10/09 09:58:46;;;;;;;34.53;28.23;;;;;;;17.79;100.00;101927.59;5043318;28;20029;-66
2023/10/09 10:01:24;;;;;;;34.55;26.52;;;;;;;17.84;100.00;101927.44;5061747;28;20055;-68
2023/10/09 10:03:56;;;;;;;35.75;27.23;;;;;;;17.90;100.00;101930.91;5054179;28;20478;-65
2023/10/09 10:06:26;;;;;;;32.63;26.38;;;;;;;17.99;100.00;101934.53;5057333;28;20636;-66
2023/10/09 10:08:52;;;;;;;33.42;25.90;;;;;;;18.08;100.00;101931.72;5053365;28;20085;-66
2023/10/09 10:11:44;;;;;;;35.50;26.83;;;;;;;18.19;100.00;101933.03;5057939;28;20033;-67
2023/10/09 10:14:11;;;;;;;33.33;26.17;;;;;;;18.26;100.00;101929.72;5059808;28;20367;-68
2023/10/09 10:17:17;;;;;;;33.80;26.42;;;;;;;18.33;100.00;101935.63;5059424;28;20020;-68
2023/10/09 10:19:59;;;;;;;34.03;27.00;;;;;;;18.34;100.00;101928.03;5055397;28;20020;-68
2023/10/09 10:22:29;;;;;;;35.10;26.15;;;;;;;18.37;100.00;101935.78;5062965;28;20081;-68
2023/10/09 10:25:02;;;;;;;34.05;26.63;;;;;;;18.44;100.00;101935.28;5068138;28;20037;-70
2023/10/09 10:27:31;;;;;;;32.55;25.63;;;;;;;18.53;100.00;101924.88;5056694;28;20040;-68
2023/10/09 10:30:12;;;;;;;31.50;25.95;;;;;;;18.68;100.00;101935.53;5061143;28;20067;-66
2023/10/09 10:33:09;;;;;;;35.30;26.33;;;;;;;18.74;100.00;101936.16;5058288;28;20041;-68
2023/10/09 10:38:34;;;;;;;34.50;28.05;;;;;;;18.89;100.00;101933.97;5057321;28;20045;-67
2023/10/09 10:41:11;;;;;;;34.00;26.60;;;;;;;18.94;100.00;101936.59;5065087;28;20041;-65
2023/10/09 10:49:14;;;;;;;34.63;26.58;;;;;;;18.99;100.00;101926.03;5061785;28;20051;-67
2023/10/09 10:51:41;;;;;;;31.27;24.63;;;;;;;19.00;100.00;101921.22;5069464;28;20032;-67
2023/10/09 10:55:17;;;;;;;33.25;25.38;;;;;;;19.00;100.00;101932.44;5069062;28;20024;-66
2023/10/09 10:57:03;;;;;;;33.15;24.92;;;;;;;19.02;100.00;101925.34;5049868;28;20044;-66
2023/10/09 10:59:39;;;;;;;32.65;26.02;;;;;;;19.07;100.00;101923.50;5047090;28;20051;-66
2023/10/09 11:04:43;;;;;;;29.77;23.15;;;;;;;19.23;100.00;101929.34;5055767;28;20052;-65
2023/10/09 11:07:09;;;;;;;32.65;24.23;;;;;;;19.32;100.00;101933.75;5068861;28;20033;-65
2023/10/09 11:12:42;;;;;;;31.15;22.92;;;;;;;19.50;100.00;101942.06;5052905;28;20175;-65
2023/10/09 11:18:07;;;;;;;32.20;22.15;;;;;;;19.68;100.00;101930.69;5056421;28;20067;-66
2023/10/09 11:20:35;;;;;;;30.67;21.10;;;;;;;19.76;100.00;101935.41;5053188;28;20048;-67
2023/10/09 11:25:38;;;;;;;28.15;19.98;;;;;;;19.77;100.00;101923.84;5037845;28;20033;-66
2023/10/09 11:28:29;;;;;;;29.00;22.60;;;;;;;19.90;100.00;101932.34;5032198;28;20168;-67
2023/10/09 11:31:05;;;;;;;29.30;20.90;;;;;;;19.99;100.00;101921.03;5028637;28;20060;-66
2023/10/09 11:33:45;;;;;;;29.27;20.25;;;;;;;20.07;100.00;101903.28;5020250;28;20029;-66
2023/10/09 11:36:11;;;;;;;28.33;20.83;;;;;;;20.26;100.00;101936.47;5034170;28;20044;-66
2023/10/09 11:38:38;;;;;;;29.00;20.08;;;;;;;20.27;100.00;101935.31;5013673;28;20121;-66
2023/10/09 11:41:19;;;;;;;27.38;19.50;;;;;;;20.33;100.00;101922.66;5024803;28;20654;-66
2023/10/09 11:43:51;;;;;;;28.17;19.17;;;;;;;20.33;100.00;101922.66;5028985;28;20116;-65
2023/10/09 11:46:37;;;;;;;27.40;18.93;;;;;;;20.39;100.00;101918.50;5028509;28;20118;-66
2023/10/09 11:49:25;;;;;;;27.98;18.90;;;;;;;20.40;100.00;101916.47;5029072;28;20453;-67
2023/10/09 11:54:35;;;;;;;28.15;18.98;;;;;;;20.34;100.00;101929.13;5034186;28;20420;-65
2023/10/09 11:57:01;;;;;;;29.52;19.20;;;;;;;20.36;100.00;101924.78;5035820;28;20047;-65
2023/10/09 11:59:37;;;;;;;28.10;18.55;;;;;;;20.36;100.00;101932.38;5037386;28;20026;-68
2023/10/09 12:02:13;;;;;;;28.02;18.17;;;;;;;20.33;100.00;101919.84;5015483;28;20037;-67
2023/10/09 12:04:42;;;;;;;26.80;18.20;;;;;;;20.27;100.00;101921.25;4991218;28;20040;-66
2023/10/09 12:07:10;;;;;;;27.23;17.98;;;;;;;20.32;100.00;101920.22;5008913;28;20501;-67
2023/10/09 12:09:37;;;;;;;26.65;17.85;;;;;;;20.32;100.00;101928.66;5027060;28;20502;-68
2023/10/09 12:12:04;;;;;;;29.10;18.13;;;;;;;20.27;100.00;101924.06;5039570;28;20026;-67
2023/10/09 12:14:37;;;;;;;24.73;16.52;;;;;;;20.31;100.00;101922.19;5037775;28;20031;-67
2023/10/09 12:17:07;;;;;;;27.13;17.35;;;;;;;20.23;100.00;101920.28;5030987;28;20021;-67
2023/10/09 12:19:38;;;;;;;25.08;17.42;;;;;;;20.26;100.00;101925.22;5013815;28;20083;-67
2023/10/09 12:22:10;;;;;;;26.55;17.20;;;;;;;20.18;100.00;101915.72;5027601;28;20049;-67
2023/10/09 12:24:37;;;;;;;25.60;16.48;;;;;;;20.10;100.00;101911.00;5030448;28;20056;-67
2023/10/09 12:27:02;;;;;;;25.25;16.42;;;;;;;20.13;100.00;101909.50;5030352;28;20477;-67
2023/10/09 12:29:30;;;;;;;25.95;15.63;;;;;;;20.16;100.00;101906.00;5030602;28;20052;-68
2023/10/09 12:31:58;;;;;;;24.02;15.65;;;;;;;20.16;100.00;101908.81;5012196;28;20465;-67
2023/10/09 12:34:26;;;;;;;24.15;16.08;;;;;;;20.15;100.00;101901.53;5030006;28;20091;-67
2023/10/09 12:36:55;;;;;;;24.90;15.95;;;;;;;20.21;100.00;101895.38;5029435;28;20047;-67
2023/10/09 12:39:21;;;;;;;25.45;16.90;;;;;;;20.25;100.00;101906.72;5031924;28;20029;-68
2023/10/09 12:41:53;;;;;;;24.05;16.00;;;;;;;20.26;100.00;101894.31;5031207;28;20061;-66
2023/10/09 12:44:19;;;;;;;25.58;16.33;;;;;;;20.32;100.00;101900.53;5032210;28;20025;-68
2023/10/09 12:46:52;;;;;;;25.30;16.75;;;;;;;20.38;100.00;101880.31;5013916;28;20033;-67
2023/10/09 12:49:19;;;;;;;25.67;16.60;;;;;;;20.47;100.00;101873.75;5012220;28;20034;-68
2023/10/09 12:51:44;;;;;;;24.70;16.70;;;;;;;20.53;99.85;101875.16;5012310;28;20073;-68
2023/10/09 12:54:10;;;;;;;24.75;16.35;;;;;;;20.60;99.91;101868.97;4994044;28;20507;-66
2023/10/09 12:56:38;;;;;;;26.27;16.58;;;;;;;20.67;99.51;101866.38;5011768;28;20130;-67
2023/10/09 12:59:07;;;;;;;23.60;16.20;;;;;;;20.84;99.23;101873.81;5011795;28;20030;-67
2023/10/09 13:01:42;;;;;;;24.70;15.98;;;;;;;20.88;97.46;101866.28;4997412;28;20068;-69
2023/10/09 13:04:16;;;;;;;25.35;15.95;;;;;;;20.92;97.69;101872.06;5020324;28;20053;-66
2023/10/09 13:06:44;;;;;;;25.83;16.35;;;;;;;21.02;97.36;101877.19;5022360;28;20041;-67
2023/10/09 13:09:14;;;;;;;23.65;16.00;;;;;;;21.09;97.05;101870.97;5020895;28;20041;-67
2023/10/09 13:11:41;;;;;;;25.52;15.57;;;;;;;21.16;97.08;101871.22;5023163;28;20135;-68
2023/10/09 13:14:21;;;;;;;24.92;16.00;;;;;;;21.18;96.21;101866.84;5023033;28;20026;-67
2023/10/09 13:16:50;;;;;;;22.88;14.90;;;;;;;21.14;95.82;101870.75;5015627;28;20091;-67
2023/10/09 13:19:17;;;;;;;24.23;15.45;;;;;;;21.08;94.88;101869.31;5011274;28;20454;-67
2023/10/09 13:21:43;;;;;;;23.98;15.13;;;;;;;21.02;94.94;101872.38;5011147;28;20129;-66
2023/10/09 13:24:12;;;;;;;24.02;14.90;;;;;;;20.99;94.82;101883.53;5011576;28;20140;-67
2023/10/09 13:26:40;;;;;;;23.83;15.60;;;;;;;20.89;93.39;101879.19;5012920;28;20045;-67
2023/10/09 13:29:09;;;;;;;24.30;14.98;;;;;;;20.83;94.69;101872.97;5026340;28;20067;-68
2023/10/09 13:31:37;;;;;;;23.38;15.00;;;;;;;20.81;94.90;101897.00;5031107;28;20437;-67
2023/10/09 13:34:06;;;;;;;24.48;15.70;;;;;;;20.68;94.71;101894.16;5030113;28;20030;-68
2023/10/09 13:36:33;;;;;;;22.60;14.63;;;;;;;20.70;95.54;101894.63;5029557;28;20071;-68
2023/10/09 13:39:52;;;;;;;24.02;14.85;;;;;;;20.66;93.86;101892.84;5030696;28;20144;-68
2023/10/09 13:42:01;;;;;;;23.35;14.75;;;;;;;20.65;93.07;101897.66;5025201;28;20037;-67
2023/10/09 13:44:33;;;;;;;23.13;14.48;;;;;;;20.65;93.14;101894.88;5017160;28;20038;-67
2023/10/09 13:47:05;;;;;;;23.40;14.80;;;;;;;20.73;93.44;101893.13;5018613;28;20496;-67
2023/10/09 13:49:31;;;;;;;23.23;15.25;;;;;;;20.66;92.75;101887.22;5041417;28;20080;-68
2023/10/09 13:51:58;;;;;;;21.80;14.60;;;;;;;20.68;92.97;101896.97;5050324;28;20044;-68
2023/10/09 13:57:04;;;;;;;27.08;14.50;;;;;;;20.76;92.04;101897.25;5036518;28;20049;-68
2023/10/09 13:59:30;;;;;;;25.35;15.25;;;;;;;20.82;91.70;101901.44;5030348;28;20069;-67
2023/10/09 14:01:56;;;;;;;22.30;14.23;;;;;;;20.91;91.98;101904.97;5030143;28;20057;-67
2023/10/09 14:04:23;;;;;;;23.42;14.23;;;;;;;20.96;91.51;101899.13;5030345;28;20160;-68
2023/10/09 14:06:49;;;;;;;24.30;15.50;;;;;;;20.92;91.55;101908.63;5030053;28;20108;-67
2023/10/09 14:12:06;;;;;;;24.83;14.98;;;;;;;20.98;91.71;101895.94;5030232;28;20051;-67
2023/10/09 14:14:40;;;;;;;25.55;14.45;;;;;;;20.98;91.70;101899.56;5029791;28;20061;-65
2023/10/09 14:17:11;;;;;;;22.25;14.02;;;;;;;20.92;91.15;101886.94;5029468;28;20037;-66
2023/10/09 14:19:50;;;;;;;23.33;14.50;;;;;;;20.94;91.09;101883.75;5011475;28;20477;-66
2023/10/09 14:22:23;;;;;;;22.45;14.13;;;;;;;21.00;91.12;101879.53;5029584;28;20083;-67
2023/10/09 14:24:55;;;;;;;23.75;14.45;;;;;;;21.10;91.72;101892.31;5029734;28;20159;-67
2023/10/09 14:27:24;;;;;;;20.88;14.07;;;;;;;21.11;90.99;101882.69;5029960;28;20064;-65
2023/10/09 14:29:49;;;;;;;22.38;14.15;;;;;;;21.22;90.54;101891.44;5011201;28;20087;-65
2023/10/09 14:32:15;;;;;;;22.38;14.07;;;;;;;21.27;88.45;101896.84;5029323;28;20041;-67
2023/10/09 14:34:46;;;;;;;23.55;14.50;;;;;;;21.23;89.51;101887.47;5029323;28;20160;-66
2023/10/09 14:37:11;;;;;;;23.17;13.52;;;;;;;21.25;88.25;101887.94;5036280;28;20223;-67
2023/10/09 14:39:40;;;;;;;22.40;14.10;;;;;;;21.28;88.09;101895.69;5039656;28;20185;-66
2023/10/09 14:42:11;;;;;;;29.17;14.15;;;;;;;21.18;88.74;101882.91;5029136;28;20036;-67
2023/10/09 14:44:37;;;;;;;22.75;14.77;;;;;;;21.16;87.79;101888.09;5038952;28;20078;-66
2023/10/09 14:47:05;;;;;;;22.85;14.18;;;;;;;21.08;88.00;101889.00;5036662;28;20433;-68
2023/10/09 14:49:53;;;;;;;23.25;13.40;;;;;;;21.04;88.02;101883.28;5038706;28;20047;-65
2023/10/09 14:52:18;;;;;;;22.23;13.75;;;;;;;20.90;88.27;101871.59;5038230;28;20032;-66
2023/10/09 14:54:44;;;;;;;22.35;13.05;;;;;;;20.85;88.72;101867.81;5037911;28;20475;-66
2023/10/09 14:57:11;;;;;;;22.45;13.30;;;;;;;20.78;89.50;101872.41;5037247;28;20024;-66
2023/10/09 14:59:37;;;;;;;24.40;13.90;;;;;;;20.64;89.46;101872.72;5009782;28;20073;-67
2023/10/09 15:02:05;;;;;;;21.80;14.38;;;;;;;20.55;90.40;101870.03;5010047;28;20036;-66
2023/10/09 15:04:30;;;;;;;22.17;13.27;;;;;;;20.51;91.57;101867.09;5010025;28;20881;-66
2023/10/09 15:06:56;;;;;;;22.65;13.65;;;;;;;20.47;91.90;101873.75;5010098;28;20034;-65
2023/10/09 15:09:22;;;;;;;23.48;13.75;;;;;;;20.38;92.55;101874.69;5010522;28;20030;-66
2023/10/09 15:11:49;;;;;;;23.70;13.73;;;;;;;20.32;93.09;101873.25;5009881;28;20508;-67
2023/10/09 15:14:15;;;;;;;23.85;13.80;;;;;;;20.22;92.11;101868.91;5009949;28;20038;-66
2023/10/09 15:16:42;;;;;;;24.70;13.88;;;;;;;20.14;92.50;101878.25;5020246;28;20032;-66
2023/10/09 15:19:09;;;;;;;21.98;13.73;;;;;;;20.03;92.45;101877.88;5027860;28;20041;-65
2023/10/09 15:21:35;;;;;;;24.65;13.95;;;;;;;19.97;93.38;101865.22;5030639;28;20064;-67
2023/10/09 15:24:01;;;;;;;21.70;13.43;;;;;;;19.89;93.24;101877.38;5028521;28;20033;-67
2023/10/09 15:26:32;;;;;;;24.67;13.88;;;;;;;19.83;94.00;101876.72;5028793;28;20136;-68
2023/10/09 15:29:00;;;;;;;22.75;13.50;;;;;;;19.79;94.63;101881.38;5029236;28;20071;-67
2023/10/09 15:31:25;;;;;;;21.90;13.88;;;;;;;19.78;94.77;101868.53;5036028;28;20108;-67
2023/10/09 15:33:51;;;;;;;22.17;13.73;;;;;;;19.74;94.65;101879.59;5048955;28;20129;-66